createdAt,value
2019-02-16T00:01:45.132Z,71.94
2019-02-16T00:04:12.181Z,71.91
2019-02-16T00:06:39.270Z,71.78
2019-02-16T00:09:06.345Z,71.86
2019-02-16T00:11:33.387Z,72.15
2019-02-16T00:14:00.439Z,72.28
2019-02-16T00:16:27.476Z,72.52
2019-02-16T00:18:54.543Z,72.75
2019-02-16T00:21:21.591Z,72.97
2019-02-16T00:23:48.615Z,72.95
2019-02-16T00:26:15.692Z,72.92
2019-02-16T00:28:42.716Z,72.97
2019-02-16T00:31:09.750Z,73.01
2019-02-16T00:33:36.808Z,73.10
2019-02-16T00:36:03.958Z,73.22
2019-02-16T00:38:31.022Z,73.04
2019-02-16T00:40:58.059Z,72.93
2019-02-16T00:43:25.121Z,72.85
2019-02-16T00:45:52.144Z,72.81
2019-02-16T00:48:19.207Z,72.61
2019-02-16T00:50:46.235Z,72.60
2019-02-16T00:53:13.319Z,72.49
2019-02-16T00:55:40.384Z,72.43
2019-02-16T00:58:07.431Z,72.36
2019-02-16T01:00:34.477Z,72.21
2019-02-16T01:03:01.519Z,72.19
2019-02-16T01:05:28.585Z,72.15
2019-02-16T01:07:55.594Z,72.14
2019-02-16T01:10:22.631Z,72.39
2019-02-16T01:12:49.658Z,72.40
2019-02-16T01:15:16.696Z,72.48
2019-02-16T01:17:43.729Z,72.61
2019-02-16T01:20:11.079Z,72.55
2019-02-16T01:22:38.207Z,72.70
2019-02-16T01:25:05.313Z,72.76
2019-02-16T01:27:32.373Z,72.71
2019-02-16T01:29:59.437Z,72.60
2019-02-16T01:32:26.495Z,72.63
2019-02-16T01:34:53.517Z,72.86
2019-02-16T01:37:20.663Z,72.73
2019-02-16T01:39:47.695Z,72.80
2019-02-16T01:42:14.723Z,72.89
2019-02-16T01:44:41.757Z,73.14
2019-02-16T01:47:08.774Z,73.34
2019-02-16T01:49:35.839Z,73.20
2019-02-16T01:52:02.902Z,73.17
2019-02-16T01:54:29.930Z,73.18
2019-02-16T01:56:57.018Z,73.28
2019-02-16T01:59:24.051Z,73.51
2019-02-16T02:01:51.118Z,73.56
2019-02-16T02:04:18.152Z,73.71
2019-02-16T02:06:45.218Z,73.67
2019-02-16T02:09:12.417Z,73.55
2019-02-16T02:11:39.501Z,73.51
2019-02-16T02:14:06.572Z,73.59
2019-02-16T02:16:33.602Z,73.49
2019-02-16T02:19:00.657Z,73.38
2019-02-16T02:21:27.720Z,73.27
2019-02-16T02:23:54.792Z,73.20
2019-02-16T02:26:21.834Z,73.27
2019-02-16T02:28:48.890Z,73.42
2019-02-16T02:31:15.911Z,73.43
2019-02-16T02:33:42.945Z,73.30
2019-02-16T02:36:10.005Z,73.28
2019-02-16T02:38:37.039Z,73.53
2019-02-16T02:41:04.093Z,73.57
2019-02-16T02:43:31.131Z,73.50
2019-02-16T02:45:58.174Z,73.38
2019-02-16T02:48:25.232Z,73.37
2019-02-16T02:50:52.251Z,73.34
2019-02-16T02:53:19.307Z,73.23
2019-02-16T02:55:46.387Z,73.15
2019-02-16T02:58:13.453Z,73.10
2019-02-16T03:00:40.502Z,73.10
2019-02-16T03:03:07.544Z,73.35
2019-02-16T03:05:34.572Z,73.25
2019-02-16T03:08:01.629Z,73.28
2019-02-16T03:10:28.678Z,73.47
2019-02-16T03:12:55.720Z,73.59
2019-02-16T03:15:22.781Z,73.57
2019-02-16T03:17:49.824Z,73.69
2019-02-16T03:20:16.863Z,73.64
2019-02-16T03:23:17.907Z,73.56
2019-02-16T03:25:48.961Z,73.53
2019-02-16T03:28:33.748Z,73.50
2019-02-16T03:31:54.652Z,73.27
2019-02-16T03:34:26.111Z,73.45
2019-02-16T03:37:35.402Z,73.60
2019-02-16T03:40:02.481Z,73.63
2019-02-16T03:42:29.541Z,73.55
2019-02-16T03:44:56.561Z,73.55
2019-02-16T03:47:23.616Z,73.54
2019-02-16T03:49:50.670Z,73.48
2019-02-16T03:52:17.704Z,73.41
2019-02-16T03:54:44.810Z,73.47
2019-02-16T03:57:11.843Z,73.47
2019-02-16T03:59:38.889Z,73.62
2019-02-16T04:02:05.933Z,73.69
2019-02-16T04:04:33.000Z,73.67
2019-02-16T04:07:00.098Z,73.46
2019-02-16T04:09:27.136Z,73.34
2019-02-16T04:11:54.180Z,73.51
2019-02-16T04:14:21.242Z,73.47
2019-02-16T04:16:48.288Z,73.57
2019-02-16T04:19:15.353Z,73.57
2019-02-16T04:21:42.390Z,73.55
2019-02-16T04:24:09.415Z,73.37
2019-02-16T04:26:36.467Z,73.16
2019-02-16T04:29:03.500Z,73.16
2019-02-16T04:31:30.552Z,73.07
2019-02-16T04:33:57.588Z,73.06
2019-02-16T04:36:24.643Z,73.17
2019-02-16T04:38:51.684Z,73.51
2019-02-16T04:41:18.738Z,73.79
2019-02-16T04:43:45.788Z,73.82
2019-02-16T04:46:12.833Z,73.66
2019-02-16T04:48:39.872Z,73.81
2019-02-16T04:51:06.917Z,73.79
2019-02-16T04:53:33.956Z,73.61
2019-02-16T04:56:00.991Z,73.69
2019-02-16T04:58:28.055Z,73.76
2019-02-16T05:00:55.095Z,73.71
2019-02-16T05:03:22.143Z,73.64
2019-02-16T05:05:49.183Z,73.69
2019-02-16T05:08:16.291Z,73.67
2019-02-16T05:10:43.355Z,73.70
2019-02-16T05:13:10.397Z,73.58
2019-02-16T05:15:37.443Z,73.54
2019-02-16T05:18:04.493Z,73.41
2019-02-16T05:20:31.505Z,73.37
2019-02-16T05:22:58.563Z,73.32
2019-02-16T05:25:25.621Z,73.27
2019-02-16T05:27:52.738Z,73.12
2019-02-16T05:30:19.937Z,73.11
2019-02-16T05:32:47.080Z,73.05
2019-02-16T05:35:14.205Z,72.77
2019-02-16T05:37:41.261Z,72.58
2019-02-16T05:40:09.339Z,72.92
2019-02-16T05:42:36.389Z,73.16
2019-02-16T05:45:03.585Z,73.07
2019-02-16T05:47:30.668Z,73.06
2019-02-16T05:49:57.722Z,73.34
2019-02-16T05:52:24.777Z,73.59
2019-02-16T05:54:51.849Z,73.82
2019-02-16T05:57:18.907Z,73.82
2019-02-16T05:59:45.931Z,73.84
2019-02-16T06:02:12.983Z,73.67
2019-02-16T06:04:40.282Z,73.63
2019-02-16T06:07:07.323Z,73.47
2019-02-16T06:09:34.395Z,73.42
2019-02-16T06:12:01.449Z,73.29
2019-02-16T06:14:28.514Z,73.30
2019-02-16T06:16:55.557Z,73.51
2019-02-16T06:19:22.617Z,73.49
2019-02-16T06:21:49.669Z,73.59
2019-02-16T06:24:16.695Z,73.54
2019-02-16T06:26:43.750Z,73.54
2019-02-16T06:29:10.812Z,73.46
2019-02-16T06:31:37.852Z,73.33
2019-02-16T06:34:04.880Z,73.51
2019-02-16T06:36:39.502Z,73.39
2019-02-16T06:39:06.564Z,73.49
2019-02-16T06:41:33.632Z,73.62
2019-02-16T06:44:00.675Z,74.74
2019-02-16T06:46:27.714Z,78.59
2019-02-16T06:48:54.750Z,78.50
2019-02-16T06:51:21.804Z,77.18
2019-02-16T06:53:48.854Z,74.18
2019-02-16T06:56:35.494Z,72.10
2019-02-16T06:59:02.531Z,71.57
2019-02-16T07:01:29.610Z,71.81
2019-02-16T07:03:56.650Z,71.99
2019-02-16T07:06:23.696Z,72.10
2019-02-16T07:08:50.757Z,72.25
2019-02-16T07:11:17.814Z,72.26
2019-02-16T07:13:44.852Z,72.32
2019-02-16T07:16:30.593Z,72.25
2019-02-16T07:19:01.603Z,72.22
2019-02-16T07:21:28.643Z,72.38
2019-02-16T07:23:55.701Z,72.45
2019-02-16T07:26:22.727Z,72.49
2019-02-16T07:28:49.789Z,72.59
2019-02-16T07:31:16.857Z,72.75
2019-02-16T07:33:43.887Z,72.83
2019-02-16T07:36:10.937Z,72.97
2019-02-16T07:38:38.010Z,73.19
2019-02-16T07:41:05.048Z,73.89
2019-02-16T07:43:42.629Z,73.94
2019-02-16T07:46:25.731Z,73.92
2019-02-16T07:48:59.263Z,73.74
2019-02-16T07:51:53.416Z,73.42
2019-02-16T07:54:35.189Z,73.01
2019-02-16T07:57:09.901Z,72.72
2019-02-16T07:59:56.538Z,72.67
2019-02-16T08:03:01.043Z,72.72
2019-02-16T08:05:53.560Z,72.71
2019-02-16T08:08:52.313Z,72.79
2019-02-16T08:11:44.011Z,73.01
2019-02-16T08:14:26.292Z,73.05
2019-02-16T08:17:12.933Z,73.05
2019-02-16T08:20:03.747Z,72.95
2019-02-16T08:23:02.672Z,72.97
2019-02-16T08:25:45.586Z,72.96
2019-02-16T08:28:26.464Z,72.85
2019-02-16T08:31:15.990Z,72.88
2019-02-16T08:34:01.298Z,73.04
2019-02-16T08:36:49.111Z,73.18
2019-02-16T08:39:34.292Z,73.02
2019-02-16T08:42:20.990Z,73.12
2019-02-16T08:45:06.548Z,72.95
2019-02-16T08:47:53.227Z,72.92
2019-02-16T08:50:38.430Z,72.63
2019-02-16T08:53:17.896Z,72.54
2019-02-16T08:55:54.179Z,72.35
2019-02-16T08:58:49.719Z,72.04
2019-02-16T09:01:35.033Z,71.68
2019-02-16T09:04:20.135Z,70.94
2019-02-16T09:07:09.831Z,70.94
2019-02-16T09:09:46.082Z,70.71
2019-02-16T09:12:35.502Z,70.41
2019-02-16T09:15:11.814Z,70.12
2019-02-16T09:17:56.462Z,69.70
2019-02-16T09:20:43.166Z,69.44
2019-02-16T09:23:28.280Z,68.81
2019-02-16T09:26:21.708Z,68.60
2019-02-16T09:28:59.231Z,68.26
2019-02-16T09:31:51.499Z,67.80
2019-02-16T09:34:40.927Z,67.40
2019-02-16T09:37:14.144Z,66.88
2019-02-16T09:39:51.156Z,66.03
2019-02-16T09:42:40.366Z,65.88
2019-02-16T09:45:18.779Z,65.52
2019-02-16T09:48:11.365Z,65.10
2019-02-16T09:50:44.628Z,64.36
2019-02-16T09:53:37.309Z,64.08
2019-02-16T09:56:14.449Z,63.81
2019-02-16T09:58:50.225Z,63.36
2019-02-16T10:01:24.638Z,63.22
2019-02-16T10:04:14.486Z,62.79
2019-02-16T10:06:59.859Z,62.61
2019-02-16T10:09:39.941Z,61.97
2019-02-16T10:12:26.611Z,61.46
2019-02-16T10:15:11.926Z,61.24
2019-02-16T10:17:57.563Z,60.48
2019-02-16T10:20:43.071Z,59.55
2019-02-16T10:23:28.823Z,58.25
2019-02-16T10:26:18.557Z,58.14
2019-02-16T10:28:53.177Z,58.01
2019-02-16T10:31:28.858Z,57.61
2019-02-16T10:34:13.854Z,56.93
2019-02-16T10:36:50.781Z,55.91
2019-02-16T10:39:36.603Z,54.26
2019-02-16T10:42:23.239Z,52.88
2019-02-16T10:44:58.581Z,51.35
2019-02-16T10:47:45.218Z,50.24
2019-02-16T10:50:31.869Z,48.49
2019-02-16T10:53:18.543Z,47.24
2019-02-16T10:56:05.184Z,45.88
2019-02-16T10:58:51.817Z,44.88
2019-02-16T11:01:38.489Z,44.18
2019-02-16T11:04:25.176Z,43.22
2019-02-16T11:07:11.789Z,42.76
2019-02-16T11:09:58.466Z,42.61
2019-02-16T11:12:45.118Z,42.35
2019-02-16T11:15:32.805Z,42.72
2019-02-16T11:18:19.494Z,42.85
2019-02-16T11:20:55.986Z,43.04
2019-02-16T11:23:42.625Z,43.14
2019-02-16T11:26:29.263Z,42.86
2019-02-16T11:29:11.571Z,41.98
2019-02-16T11:31:58.178Z,41.14
2019-02-16T11:34:44.804Z,40.74
2019-02-16T11:37:31.447Z,40.20
2019-02-16T11:40:04.982Z,39.10
2019-02-16T11:42:42.050Z,38.68
2019-02-16T11:45:28.674Z,38.32
2019-02-16T11:48:04.512Z,37.68
2019-02-16T11:50:38.019Z,37.45
2019-02-16T11:53:24.638Z,37.39
2019-02-16T11:56:11.249Z,36.88
2019-02-16T11:58:57.902Z,36.24
2019-02-16T12:01:44.571Z,36.46
2019-02-16T12:04:31.223Z,36.10
2019-02-16T12:07:17.842Z,36.21
2019-02-16T12:10:04.488Z,36.38
2019-02-16T12:12:51.121Z,36.23
2019-02-16T12:15:37.768Z,36.28
2019-02-16T12:18:24.510Z,36.51
2019-02-16T12:21:11.176Z,36.51
2019-02-16T12:23:57.796Z,36.42
2019-02-16T12:26:44.480Z,36.52
2019-02-16T12:29:31.112Z,36.42
2019-02-16T12:32:17.782Z,36.48
2019-02-16T12:35:06.092Z,36.49
2019-02-16T12:38:05.224Z,36.84
2019-02-16T12:41:04.338Z,36.95
2019-02-16T12:44:04.140Z,37.08
2019-02-16T12:46:50.762Z,37.08
2019-02-16T12:49:56.893Z,37.25
2019-02-16T12:52:43.541Z,37.25
2019-02-16T12:55:49.667Z,37.66
2019-02-16T12:58:36.300Z,37.66
2019-02-16T13:01:42.441Z,38.14
2019-02-16T13:04:29.080Z,38.14
2019-02-16T13:07:35.227Z,38.46
2019-02-16T13:10:21.862Z,38.46
2019-02-16T13:13:08.487Z,38.12
2019-02-16T13:15:55.155Z,39.71
2019-02-16T13:18:42.287Z,39.71
2019-02-16T13:21:36.803Z,39.23
2019-02-16T13:24:08.673Z,39.16
2019-02-16T13:26:55.287Z,39.16
2019-02-16T13:30:01.414Z,38.76
2019-02-16T13:32:48.070Z,38.76
2019-02-16T13:35:34.714Z,39.36
2019-02-16T13:38:21.359Z,39.58
2019-02-16T13:41:27.472Z,38.58
2019-02-16T13:44:14.095Z,38.58
2019-02-16T13:47:00.732Z,37.59
2019-02-16T13:49:46.892Z,38.15
2019-02-16T13:52:33.537Z,38.15
2019-02-16T13:55:11.162Z,38.53
2019-02-16T13:58:00.720Z,38.67
2019-02-16T14:00:33.590Z,38.75
2019-02-16T14:03:20.224Z,38.90
2019-02-16T14:06:06.884Z,38.92
2019-02-16T14:09:02.381Z,38.82
2019-02-16T14:11:54.914Z,38.87
2019-02-16T14:14:59.858Z,38.91
2019-02-16T14:17:34.343Z,38.85
2019-02-16T14:20:01.414Z,38.79
2019-02-16T14:22:28.517Z,38.61
2019-02-16T14:24:57.907Z,38.60
2019-02-16T14:27:24.942Z,38.46
2019-02-16T14:29:52.000Z,38.37
2019-02-16T14:32:19.055Z,37.66
2019-02-16T14:34:46.099Z,37.35
2019-02-16T14:37:31.148Z,37.35
2019-02-16T14:39:58.217Z,36.87
2019-02-16T14:42:25.251Z,36.78
2019-02-16T14:44:52.332Z,36.46
2019-02-16T14:47:19.399Z,36.06
2019-02-16T14:49:46.475Z,36.13
2019-02-16T14:52:13.563Z,35.80
2019-02-16T14:54:40.615Z,35.78
2019-02-16T14:57:07.665Z,35.53
2019-02-16T14:59:34.710Z,35.26
2019-02-16T15:02:01.781Z,34.99
2019-02-16T15:04:28.857Z,34.77
2019-02-16T15:06:55.897Z,34.64
2019-02-16T15:09:22.987Z,34.86
2019-02-16T15:11:50.081Z,34.55
2019-02-16T15:14:17.132Z,34.60
2019-02-16T15:16:44.181Z,34.31
2019-02-16T15:19:11.224Z,34.44
2019-02-16T15:21:38.300Z,34.56
2019-02-16T15:24:05.363Z,34.93
2019-02-16T15:26:32.454Z,35.33
2019-02-16T15:28:59.540Z,36.02
2019-02-16T15:31:26.641Z,36.76
2019-02-16T15:33:53.738Z,37.58
2019-02-16T15:36:23.973Z,38.20
2019-02-16T15:38:55.956Z,39.03
2019-02-16T15:41:23.021Z,39.63
2019-02-16T15:43:50.072Z,39.76
2019-02-16T15:46:17.166Z,40.13
2019-02-16T15:48:57.181Z,41.85
2019-02-16T15:51:24.296Z,41.85
2019-02-16T15:53:51.381Z,43.97
2019-02-16T15:56:18.483Z,43.97
2019-02-16T15:58:45.551Z,45.20
2019-02-16T16:01:12.622Z,45.88
2019-02-16T16:03:39.868Z,46.68
2019-02-16T16:06:06.955Z,47.50
2019-02-16T16:08:53.731Z,48.35
2019-02-16T16:11:40.417Z,48.97
2019-02-16T16:14:27.137Z,49.78
2019-02-16T16:17:13.813Z,50.55
2019-02-16T16:19:50.659Z,51.24
2019-02-16T16:22:28.663Z,52.14
2019-02-16T16:25:15.386Z,52.64
2019-02-16T16:28:02.087Z,53.19
2019-02-16T16:30:48.814Z,53.68
2019-02-16T16:33:35.469Z,54.25
2019-02-16T16:36:12.468Z,54.84
2019-02-16T16:38:59.144Z,55.48
2019-02-16T16:41:45.821Z,55.96
2019-02-16T16:44:32.502Z,56.42
2019-02-16T16:47:09.971Z,56.44
2019-02-16T16:50:02.729Z,56.78
2019-02-16T16:52:47.396Z,57.00
2019-02-16T16:55:22.084Z,57.46
2019-02-16T16:58:08.766Z,57.81
2019-02-16T17:00:57.131Z,58.42
2019-02-16T17:03:43.816Z,58.69
2019-02-16T17:06:26.003Z,59.19
2019-02-16T17:09:16.055Z,59.54
2019-02-16T17:11:58.667Z,59.78
2019-02-16T17:14:37.900Z,60.03
2019-02-16T17:17:27.657Z,60.54
2019-02-16T17:20:04.812Z,60.74
2019-02-16T17:22:51.480Z,60.60
2019-02-16T17:25:29.897Z,60.74
2019-02-16T17:28:14.980Z,61.13
2019-02-16T17:30:50.818Z,61.26
2019-02-16T17:33:49.847Z,61.37
2019-02-16T17:36:35.250Z,61.43
2019-02-16T17:39:11.145Z,61.69
2019-02-16T17:41:57.865Z,61.75
2019-02-16T17:44:44.546Z,61.78
2019-02-16T17:47:28.620Z,61.85
2019-02-16T17:50:14.192Z,61.94
2019-02-16T17:53:09.569Z,62.02
2019-02-16T17:55:55.186Z,62.14
2019-02-16T17:58:27.035Z,62.20
2019-02-16T18:01:13.764Z,62.39
2019-02-16T18:04:06.508Z,62.58
2019-02-16T18:06:42.195Z,62.85
2019-02-16T18:09:27.490Z,62.96
2019-02-16T18:12:20.788Z,63.24
2019-02-16T18:15:06.184Z,63.30
2019-02-16T18:18:06.058Z,63.43
2019-02-16T18:20:48.643Z,63.43
2019-02-16T18:23:35.338Z,63.77
2019-02-16T18:26:25.065Z,64.22
2019-02-16T18:29:10.103Z,64.45
2019-02-16T18:32:08.790Z,64.16
2019-02-16T18:34:45.291Z,64.34
2019-02-16T18:37:30.409Z,64.47
2019-02-16T18:40:10.047Z,64.53
2019-02-16T18:42:55.939Z,64.69
2019-02-16T18:45:55.247Z,64.80
2019-02-16T18:48:48.056Z,64.86
2019-02-16T18:51:27.703Z,65.37
2019-02-16T18:54:13.361Z,66.17
2019-02-16T18:56:53.233Z,65.75
2019-02-16T18:59:51.736Z,66.10
2019-02-16T19:02:44.185Z,66.10
2019-02-16T19:05:30.023Z,66.18
2019-02-16T19:08:15.355Z,65.73
2019-02-16T19:10:49.653Z,65.65
2019-02-16T19:13:36.472Z,65.90
2019-02-16T19:16:27.309Z,66.04
2019-02-16T19:19:23.192Z,66.05
2019-02-16T19:22:22.258Z,66.04
2019-02-16T19:25:04.642Z,66.25
2019-02-16T19:27:54.153Z,66.18
2019-02-16T19:30:30.316Z,66.45
2019-02-16T19:33:17.255Z,66.56
2019-02-16T19:36:05.590Z,66.73
2019-02-16T19:39:07.468Z,66.64
2019-02-16T19:41:55.361Z,66.79
2019-02-16T19:44:42.107Z,67.12
2019-02-16T19:47:27.487Z,67.40
2019-02-16T19:50:23.479Z,67.48
2019-02-16T19:52:59.187Z,67.83
2019-02-16T19:55:35.647Z,67.90
2019-02-16T19:58:21.114Z,67.94
2019-02-16T20:01:09.587Z,68.57
2019-02-16T20:03:59.946Z,68.84
2019-02-16T20:06:37.941Z,68.95
2019-02-16T20:09:18.843Z,69.06
2019-02-16T20:12:14.654Z,68.93
2019-02-16T20:15:07.277Z,68.78
2019-02-16T20:18:00.316Z,68.78
2019-02-16T20:20:47.360Z,68.79
2019-02-16T20:23:29.500Z,68.68
2019-02-16T20:26:03.797Z,68.94
2019-02-16T20:28:50.557Z,69.08
2019-02-16T20:31:45.453Z,69.41
2019-02-16T20:34:35.150Z,69.41
2019-02-16T20:37:21.891Z,69.97
2019-02-16T20:40:26.956Z,69.79
2019-02-16T20:43:12.393Z,69.79
2019-02-16T20:45:49.856Z,69.94
2019-02-16T20:48:58.576Z,69.77
2019-02-16T20:51:47.673Z,69.68
2019-02-16T20:54:34.605Z,69.83
2019-02-16T20:57:47.331Z,69.81
2019-02-16T21:00:23.921Z,69.69
2019-02-16T21:03:05.741Z,69.70
2019-02-16T21:05:51.732Z,69.82
2019-02-16T21:08:47.655Z,69.86
2019-02-16T21:11:28.275Z,69.89
2019-02-16T21:14:00.920Z,69.97
2019-02-16T21:16:44.615Z,70.07
2019-02-16T21:19:23.697Z,70.12
2019-02-16T21:22:08.793Z,70.08
2019-02-16T21:24:47.698Z,70.06
2019-02-16T21:27:39.231Z,69.94
2019-02-16T21:30:46.355Z,70.00
2019-02-16T21:33:39.053Z,70.00
2019-02-16T21:36:30.195Z,70.06
2019-02-16T21:39:21.803Z,70.18
2019-02-16T21:42:11.178Z,70.24
2019-02-16T21:44:58.212Z,70.29
2019-02-16T21:47:57.025Z,70.37
2019-02-16T21:50:40.563Z,70.35
2019-02-16T21:53:25.687Z,70.16
2019-02-16T21:56:01.400Z,70.16
2019-02-16T21:58:38.628Z,70.25
2019-02-16T22:01:30.962Z,70.24
2019-02-16T22:04:21.949Z,70.15
2019-02-16T22:07:14.666Z,70.31
2019-02-16T22:10:13.167Z,70.38
2019-02-16T22:13:01.592Z,70.58
2019-02-16T22:15:28.683Z,70.82
2019-02-16T22:17:56.307Z,71.04
2019-02-16T22:20:23.410Z,71.26
2019-02-16T22:22:50.518Z,71.34
2019-02-16T22:25:19.620Z,71.27
2019-02-16T22:27:46.612Z,71.21
2019-02-16T22:30:13.722Z,71.21
2019-02-16T22:32:40.807Z,71.00
2019-02-16T22:35:07.979Z,71.18
2019-02-16T22:37:35.070Z,71.05
2019-02-16T22:40:02.140Z,70.96
2019-02-16T22:42:29.294Z,70.93
2019-02-16T22:44:56.332Z,71.00
2019-02-16T22:47:23.407Z,71.20
2019-02-16T22:49:50.480Z,71.13
2019-02-16T22:52:17.524Z,71.10
2019-02-16T22:54:44.555Z,71.12
2019-02-16T22:57:11.610Z,71.30
2019-02-16T22:59:38.672Z,71.65
2019-02-16T23:02:05.830Z,71.82
2019-02-16T23:04:33.750Z,71.85
2019-02-16T23:07:00.798Z,71.87
2019-02-16T23:09:28.611Z,71.81
2019-02-16T23:11:55.727Z,71.68
2019-02-16T23:14:24.255Z,71.30
2019-02-16T23:16:51.439Z,71.32
2019-02-16T23:19:18.508Z,71.32
2019-02-16T23:21:45.519Z,71.25
2019-02-16T23:24:12.547Z,71.34
2019-02-16T23:26:39.586Z,71.46
2019-02-16T23:29:06.607Z,71.62
2019-02-16T23:31:33.645Z,71.59
2019-02-16T23:34:00.663Z,71.63
2019-02-16T23:36:27.694Z,71.49
2019-02-16T23:38:54.725Z,71.35
2019-02-16T23:41:21.746Z,71.36
2019-02-16T23:43:48.777Z,71.34
2019-02-16T23:46:15.816Z,71.35
2019-02-16T23:48:42.848Z,71.44
2019-02-16T23:51:09.916Z,71.48
2019-02-16T23:53:36.943Z,71.49
2019-02-16T23:56:03.983Z,71.56
2019-02-16T23:58:31.126Z,71.54
